createdAt,value
2017-05-27T00:00:17.534Z,0
2017-05-27T00:01:17.442Z,0
2017-05-27T00:02:18.064Z,0
2017-05-27T00:03:17.509Z,0
2017-05-27T00:04:17.784Z,0
2017-05-27T00:05:17.478Z,0
2017-05-27T00:06:17.809Z,0
2017-05-27T00:07:17.552Z,0
2017-05-27T00:08:17.814Z,0
2017-05-27T00:09:17.879Z,0
2017-05-27T00:10:17.525Z,0
2017-05-27T00:11:17.529Z,0
2017-05-27T00:12:17.966Z,0
2017-05-27T00:13:17.910Z,0
2017-05-27T00:14:17.871Z,0
2017-05-27T00:15:17.879Z,0
2017-05-27T00:16:17.581Z,0
2017-05-27T00:17:18.263Z,0
2017-05-27T00:18:17.601Z,0
2017-05-27T00:19:17.919Z,0
2017-05-27T00:20:17.310Z,0
2017-05-27T00:21:17.936Z,0
2017-05-27T00:22:17.369Z,0
2017-05-27T00:23:18.256Z,0
2017-05-27T00:24:17.962Z,0
2017-05-27T00:25:17.972Z,0
2017-05-27T00:26:17.982Z,0
2017-05-27T00:27:18.043Z,0
2017-05-27T00:28:17.378Z,0
2017-05-27T00:29:17.443Z,0
2017-05-27T00:30:17.710Z,0
2017-05-27T00:31:18.034Z,0
2017-05-27T00:32:18.084Z,0
2017-05-27T00:33:18.061Z,0
2017-05-27T00:34:18.051Z,0
2017-05-27T00:35:18.061Z,0
2017-05-27T00:36:17.814Z,0
2017-05-27T00:37:18.083Z,0
2017-05-27T00:38:17.833Z,0
2017-05-27T00:39:18.108Z,0
2017-05-27T00:40:17.874Z,0
2017-05-27T00:41:18.119Z,0
2017-05-27T00:42:18.180Z,0
2017-05-27T00:43:17.825Z,0
2017-05-27T00:44:17.524Z,0
2017-05-27T00:45:18.204Z,0
2017-05-27T00:46:17.543Z,0
2017-05-27T00:47:17.907Z,0
2017-05-27T00:48:17.561Z,0
2017-05-27T00:49:17.927Z,0
2017-05-27T00:50:18.198Z,0
2017-05-27T00:51:18.208Z,0
2017-05-27T00:52:18.222Z,0
2017-05-27T00:53:17.915Z,0
2017-05-27T00:54:18.245Z,0
2017-05-27T00:55:17.936Z,0
2017-05-27T00:56:18.258Z,0
2017-05-27T00:57:18.002Z,0
2017-05-27T00:58:17.960Z,0
2017-05-27T00:59:18.278Z,0
2017-05-27T01:00:18.027Z,0
2017-05-27T01:01:17.985Z,0
2017-05-27T01:02:18.361Z,0
2017-05-27T01:03:18.368Z,0
2017-05-27T01:04:18.065Z,0
2017-05-27T01:05:18.326Z,0
2017-05-27T01:06:18.082Z,0
2017-05-27T01:07:18.410Z,0
2017-05-27T01:08:18.101Z,0
2017-05-27T01:09:18.117Z,0
2017-05-27T01:10:18.433Z,0
2017-05-27T01:11:18.396Z,0
2017-05-27T01:12:18.396Z,0
2017-05-27T01:13:18.414Z,0
2017-05-27T01:14:18.160Z,0
2017-05-27T01:15:17.906Z,0
2017-05-27T01:16:18.175Z,0
2017-05-27T01:17:18.135Z,0
2017-05-27T01:18:17.934Z,0
2017-05-27T01:19:18.204Z,0
2017-05-27T01:20:18.166Z,0
2017-05-27T01:21:18.481Z,0
2017-05-27T01:22:17.868Z,0
2017-05-27T01:23:18.562Z,0
2017-05-27T01:24:17.937Z,0
2017-05-27T01:25:18.206Z,0
2017-05-27T01:26:18.217Z,0
2017-05-27T01:27:17.608Z,0
2017-05-27T01:28:18.347Z,0
2017-05-27T01:29:18.555Z,0
2017-05-27T01:30:18.565Z,0
2017-05-27T01:31:18.574Z,0
2017-05-27T01:32:17.959Z,0
2017-05-27T01:33:18.385Z,0
2017-05-27T01:34:18.601Z,0
2017-05-27T01:35:18.768Z,0
2017-05-27T01:36:18.413Z,0
2017-05-27T01:37:18.625Z,0
2017-05-27T01:38:18.066Z,0
2017-05-27T01:39:18.654Z,0
2017-05-27T01:40:18.656Z,0
2017-05-27T01:41:18.043Z,0
2017-05-27T01:42:18.106Z,0
2017-05-27T01:43:17.747Z,0
2017-05-27T01:44:18.380Z,0
2017-05-27T01:45:18.437Z,0
2017-05-27T01:46:18.708Z,0
2017-05-27T01:47:18.722Z,0
2017-05-27T01:48:18.467Z,0
2017-05-27T01:49:18.426Z,0
2017-05-27T01:50:18.799Z,0
2017-05-27T01:51:18.441Z,0
2017-05-27T01:52:18.453Z,0
2017-05-27T01:53:18.160Z,0
2017-05-27T01:54:18.473Z,0
2017-05-27T01:55:18.477Z,0
2017-05-27T01:56:18.489Z,0
2017-05-27T01:57:18.805Z,0
2017-05-27T01:58:18.552Z,0
2017-05-27T01:59:18.517Z,0
2017-05-27T02:00:18.528Z,0
2017-05-27T02:01:18.532Z,0
2017-05-27T02:02:18.544Z,0
2017-05-27T02:03:18.863Z,0
2017-05-27T02:04:18.923Z,0
2017-05-27T02:05:18.880Z,0
2017-05-27T02:06:18.578Z,0
2017-05-27T02:07:18.281Z,0
2017-05-27T02:08:18.601Z,0
2017-05-27T02:09:18.399Z,0
2017-05-27T02:10:18.973Z,0
2017-05-27T02:11:18.935Z,0
2017-05-27T02:12:18.634Z,0
2017-05-27T02:13:18.691Z,0
2017-05-27T02:14:18.650Z,0
2017-05-27T02:15:19.021Z,0
2017-05-27T02:16:18.406Z,0
2017-05-27T02:17:18.987Z,0
2017-05-27T02:18:18.995Z,0
2017-05-27T02:19:18.436Z,0
2017-05-27T02:20:18.401Z,0
2017-05-27T02:21:19.028Z,0
2017-05-27T02:22:19.033Z,0
2017-05-27T02:23:18.787Z,0
2017-05-27T02:24:18.790Z,0
2017-05-27T02:25:18.750Z,0
2017-05-27T02:26:18.761Z,0
2017-05-27T02:27:19.085Z,0
2017-05-27T02:28:18.780Z,0
2017-05-27T02:29:19.098Z,0
2017-05-27T02:30:18.848Z,0
2017-05-27T02:31:18.853Z,0
2017-05-27T02:32:18.501Z,0
2017-05-27T02:33:18.873Z,0
2017-05-27T02:34:18.265Z,0
2017-05-27T02:35:18.848Z,0
2017-05-27T02:36:18.907Z,0
2017-05-27T02:37:18.551Z,0
2017-05-27T02:38:18.609Z,0
2017-05-27T02:39:18.930Z,0
2017-05-27T02:40:18.938Z,0
2017-05-27T02:41:19.207Z,0
2017-05-27T02:42:19.213Z,0
2017-05-27T02:43:18.288Z,0
2017-05-27T02:44:18.921Z,0
2017-05-27T02:45:18.929Z,0
2017-05-27T02:46:18.939Z,0
2017-05-27T02:47:19.001Z,0
2017-05-27T02:48:18.958Z,0
2017-05-27T02:49:18.975Z,0
2017-05-27T02:50:19.285Z,0
2017-05-27T02:51:18.990Z,0
2017-05-27T02:52:19.045Z,4
2017-05-27T02:53:19.312Z,4
2017-05-27T02:54:19.065Z,0
2017-05-27T02:55:19.025Z,0
2017-05-27T02:56:19.032Z,0
2017-05-27T02:57:19.042Z,4
2017-05-27T02:58:19.050Z,4
2017-05-27T02:59:19.424Z,0
2017-05-27T03:00:18.756Z,4
2017-05-27T03:01:18.768Z,4
2017-05-27T03:02:19.397Z,4
2017-05-27T03:03:19.557Z,4
2017-05-27T03:04:18.804Z,8
2017-05-27T03:05:19.218Z,4
2017-05-27T03:06:19.441Z,8
2017-05-27T03:07:19.183Z,8
2017-05-27T03:08:19.505Z,8
2017-05-27T03:09:19.513Z,8
2017-05-27T03:10:19.471Z,8
2017-05-27T03:11:19.482Z,12
2017-05-27T03:12:19.837Z,12
2017-05-27T03:13:19.546Z,12
2017-05-27T03:14:19.504Z,12
2017-05-27T03:16:18.901Z,16
2017-05-27T03:17:18.959Z,16
2017-05-27T03:18:19.233Z,20
2017-05-27T03:19:19.251Z,20
2017-05-27T03:20:18.938Z,24
2017-05-27T03:21:19.260Z,28
2017-05-27T03:22:19.272Z,32
2017-05-27T03:23:19.325Z,28
2017-05-27T03:24:18.988Z,32
2017-05-27T03:25:19.298Z,40
2017-05-27T03:26:19.308Z,40
2017-05-27T03:27:19.621Z,40
2017-05-27T03:28:19.731Z,44
2017-05-27T03:29:19.642Z,48
2017-05-27T03:30:19.652Z,52
2017-05-27T03:31:19.711Z,56
2017-05-27T03:32:19.361Z,60
2017-05-27T03:33:19.373Z,64
2017-05-27T03:34:19.794Z,64
2017-05-27T03:35:19.390Z,68
2017-05-27T03:36:19.393Z,72
2017-05-27T03:37:19.404Z,76
2017-05-27T03:38:19.411Z,84
2017-05-27T03:39:19.737Z,84
2017-05-27T03:40:19.431Z,88
2017-05-27T03:41:19.802Z,96
2017-05-27T03:42:19.761Z,100
2017-05-27T03:43:19.770Z,104
2017-05-27T03:44:18.849Z,108
2017-05-27T03:45:19.477Z,116
2017-05-27T03:46:19.174Z,120
2017-05-27T03:47:19.804Z,124
2017-05-27T03:48:19.821Z,132
2017-05-27T03:49:19.874Z,136
2017-05-27T03:50:19.832Z,140
2017-05-27T03:51:19.533Z,148
2017-05-27T03:52:19.538Z,148
2017-05-27T03:53:19.552Z,156
2017-05-27T03:54:19.560Z,164
2017-05-27T03:55:19.566Z,164
2017-05-27T03:56:19.882Z,172
2017-05-27T03:57:19.896Z,180
2017-05-27T03:58:19.909Z,184
2017-05-27T03:59:19.603Z,188
2017-05-27T04:00:19.302Z,192
2017-05-27T04:01:19.935Z,200
2017-05-27T04:02:19.936Z,208
2017-05-27T04:03:19.687Z,212
2017-05-27T04:04:20.004Z,216
2017-05-27T04:05:19.343Z,220
2017-05-27T04:06:19.671Z,228
2017-05-27T04:07:19.726Z,232
2017-05-27T04:08:19.683Z,240
2017-05-27T04:09:20.002Z,244
2017-05-27T04:10:20.060Z,248
2017-05-27T04:11:20.018Z,256
2017-05-27T04:12:20.032Z,260
2017-05-27T04:13:20.044Z,264
2017-05-27T04:14:19.788Z,272
2017-05-27T04:15:19.792Z,276
2017-05-27T04:16:19.805Z,288
2017-05-27T04:17:20.076Z,296
2017-05-27T04:18:19.771Z,304
2017-05-27T04:19:19.835Z,320
2017-05-27T04:20:19.841Z,340
2017-05-27T04:21:19.851Z,352
2017-05-27T04:22:19.810Z,356
2017-05-27T04:23:19.826Z,352
2017-05-27T04:24:19.827Z,368
2017-05-27T04:25:19.834Z,356
2017-05-27T04:26:19.893Z,364
2017-05-27T04:27:19.856Z,368
2017-05-27T04:28:20.220Z,384
2017-05-27T04:29:19.869Z,388
2017-05-27T04:30:19.881Z,404
2017-05-27T04:31:19.953Z,416
2017-05-27T04:32:20.253Z,432
2017-05-27T04:33:19.922Z,460
2017-05-27T04:34:19.970Z,488
2017-05-27T04:35:20.026Z,504
2017-05-27T04:36:19.621Z,544
2017-05-27T04:37:20.253Z,556
2017-05-27T04:38:20.263Z,592
2017-05-27T04:39:20.278Z,632
2017-05-27T04:40:20.020Z,704
2017-05-27T04:41:19.981Z,820
2017-05-27T04:42:19.992Z,880
2017-05-27T04:43:19.998Z,976
2017-05-27T04:44:20.321Z,1056
2017-05-27T04:45:20.019Z,1024
2017-05-27T04:46:20.405Z,1076
2017-05-27T04:47:20.398Z,1168
2017-05-27T04:48:20.355Z,1308
2017-05-27T04:49:20.056Z,1492
2017-05-27T04:50:19.755Z,2268
2017-05-27T04:51:20.391Z,3452
2017-05-27T04:52:20.393Z,3616
2017-05-27T04:53:19.839Z,3700
2017-05-27T04:54:20.420Z,3784
2017-05-27T04:55:19.799Z,3856
2017-05-27T04:56:20.482Z,3916
2017-05-27T04:57:20.457Z,3968
2017-05-27T04:58:19.829Z,4040
2017-05-27T04:59:19.896Z,4164
2017-05-27T05:00:20.215Z,4280
2017-05-27T05:01:19.864Z,4400
2017-05-27T05:02:19.876Z,4492
2017-05-27T05:03:20.205Z,4584
2017-05-27T05:04:20.211Z,4736
2017-05-27T05:05:20.217Z,4820
2017-05-27T05:06:19.920Z,4900
2017-05-27T05:07:20.610Z,5000
2017-05-27T05:08:20.270Z,5112
2017-05-27T05:09:20.315Z,5268
2017-05-27T05:10:20.272Z,5384
2017-05-27T05:11:20.597Z,5492
2017-05-27T05:12:20.349Z,5632
2017-05-27T05:13:20.005Z,5728
2017-05-27T05:14:20.322Z,5932
2017-05-27T05:15:20.328Z,6080
2017-05-27T05:16:20.029Z,6220
2017-05-27T05:17:20.040Z,6420
2017-05-27T05:18:20.363Z,6476
2017-05-27T05:19:20.377Z,6484
2017-05-27T05:20:20.445Z,6572
2017-05-27T05:21:20.398Z,6544
2017-05-27T05:22:20.405Z,6468
2017-05-27T05:23:20.730Z,6508
2017-05-27T05:24:20.431Z,6732
2017-05-27T05:25:20.756Z,6900
2017-05-27T05:26:20.453Z,6908
2017-05-27T05:27:20.776Z,6876
2017-05-27T05:28:20.165Z,6844
2017-05-27T05:29:20.795Z,6580
2017-05-27T05:30:20.807Z,6572
2017-05-27T05:31:20.923Z,6988
2017-05-27T05:32:20.517Z,7412
2017-05-27T05:33:20.531Z,7732
2017-05-27T05:34:20.544Z,7928
2017-05-27T05:35:20.870Z,7776
2017-05-27T05:36:20.617Z,7824
2017-05-27T05:37:20.892Z,8208
2017-05-27T05:38:20.898Z,8384
2017-05-27T05:39:20.294Z,8708
2017-05-27T05:40:20.357Z,9004
2017-05-27T05:41:20.627Z,9092
2017-05-27T05:42:20.378Z,9180
2017-05-27T05:43:20.647Z,9560
2017-05-27T05:44:21.073Z,9884
2017-05-27T05:45:20.359Z,10304
2017-05-27T05:46:20.385Z,10888
2017-05-27T05:47:20.693Z,11148
2017-05-27T05:48:21.088Z,11344
2017-05-27T05:49:21.097Z,11880
2017-05-27T05:50:21.056Z,11992
2017-05-27T05:51:20.747Z,11676
2017-05-27T05:52:20.811Z,12064
2017-05-27T05:53:20.452Z,12184
2017-05-27T05:54:20.469Z,12164
2017-05-27T05:55:20.481Z,12412
2017-05-27T05:56:21.217Z,12472
2017-05-27T05:57:21.134Z,12484
2017-05-27T05:58:20.830Z,12524
2017-05-27T05:59:20.840Z,12704
2017-05-27T06:00:21.168Z,13324
2017-05-27T06:01:20.554Z,13460
2017-05-27T06:02:20.877Z,13540
2017-05-27T06:03:21.516Z,13684
2017-05-27T06:04:21.216Z,13140
2017-05-27T06:05:20.612Z,13176
2017-05-27T06:06:21.291Z,14016
2017-05-27T06:07:21.246Z,14176
2017-05-27T06:08:21.000Z,14144
2017-05-27T06:09:21.286Z,15072
2017-05-27T06:10:20.715Z,15520
2017-05-27T06:11:20.674Z,15712
2017-05-27T06:12:21.007Z,15840
2017-05-27T06:13:21.309Z,16640
2017-05-27T06:14:21.344Z,17312
2017-05-27T06:15:20.774Z,17536
2017-05-27T06:16:21.044Z,17664
2017-05-27T06:17:20.754Z,17376
2017-05-27T06:18:21.126Z,17216
2017-05-27T06:19:21.143Z,18336
2017-05-27T06:20:21.148Z,19456
2017-05-27T06:21:20.848Z,19872
2017-05-27T06:22:21.125Z,19840
2017-05-27T06:23:21.135Z,20192
2017-05-27T06:24:21.153Z,20352
2017-05-27T06:25:21.166Z,19776
2017-05-27T06:26:21.557Z,19040
2017-05-27T06:27:21.502Z,17856
2017-05-27T06:28:21.518Z,17248
2017-05-27T06:29:21.528Z,17728
2017-05-27T06:30:21.240Z,17984
2017-05-27T06:31:21.247Z,18208
2017-05-27T06:32:21.301Z,18304
2017-05-27T06:33:21.004Z,18528
2017-05-27T06:34:21.280Z,18656
2017-05-27T06:35:21.601Z,18240
2017-05-27T06:36:21.304Z,18144
2017-05-27T06:37:21.629Z,18016
2017-05-27T06:38:21.647Z,17888
2017-05-27T06:39:21.349Z,17664
2017-05-27T06:40:21.055Z,17472
2017-05-27T06:41:21.371Z,17120
2017-05-27T06:42:21.697Z,17088
2017-05-27T06:43:21.400Z,16864
2017-05-27T06:44:21.747Z,16384
2017-05-27T06:45:21.734Z,15552
2017-05-27T06:46:21.747Z,15616
2017-05-27T06:47:21.513Z,15616
2017-05-27T06:48:21.778Z,15520
2017-05-27T06:49:21.578Z,15840
2017-05-27T06:50:21.178Z,16416
2017-05-27T06:51:21.503Z,16832
2017-05-27T06:52:21.836Z,16736
2017-05-27T06:53:21.848Z,17184
2017-05-27T06:54:21.237Z,17504
2017-05-27T06:55:21.611Z,17728
2017-05-27T06:56:21.569Z,17600
2017-05-27T06:57:21.951Z,16928
2017-05-27T06:58:21.601Z,16768
2017-05-27T06:59:21.973Z,17856
2017-05-27T07:00:21.677Z,19392
2017-05-27T07:01:21.640Z,19744
2017-05-27T07:02:22.061Z,20416
2017-05-27T07:03:21.979Z,20864
2017-05-27T07:04:21.989Z,20256
2017-05-27T07:05:22.005Z,19776
2017-05-27T07:06:21.761Z,18880
2017-05-27T07:07:21.722Z,18336
2017-05-27T07:08:21.434Z,19616
2017-05-27T07:09:21.752Z,21632
2017-05-27T07:10:22.084Z,23936
2017-05-27T07:11:22.138Z,24768
2017-05-27T07:12:22.113Z,25536
2017-05-27T07:13:21.805Z,26400
2017-05-27T07:14:22.143Z,26688
2017-05-27T07:15:22.192Z,27488
2017-05-27T07:16:22.162Z,28448
2017-05-27T07:17:21.921Z,28928
2017-05-27T07:18:21.924Z,29472
2017-05-27T07:19:21.897Z,30496
2017-05-27T07:20:21.610Z,31584
2017-05-27T07:21:22.285Z,31776
2017-05-27T07:22:22.254Z,32672
2017-05-27T07:23:21.996Z,33824
2017-05-27T07:24:21.965Z,34336
2017-05-27T07:25:22.287Z,34848
2017-05-27T07:26:22.302Z,35680
2017-05-27T07:27:22.119Z,36480
2017-05-27T07:28:22.334Z,36928
2017-05-27T07:29:21.771Z,38240
2017-05-27T07:30:21.737Z,38976
2017-05-27T07:31:22.060Z,38304
2017-05-27T07:32:22.079Z,26368
2017-05-27T07:33:21.836Z,11304
2017-05-27T07:34:21.839Z,2352
2017-05-27T07:35:22.115Z,2112
2017-05-27T07:36:21.870Z,1904
2017-05-27T07:37:22.146Z,1584
2017-05-27T07:38:21.896Z,1256
2017-05-27T07:39:22.173Z,1036
2017-05-27T07:40:22.805Z,900
2017-05-27T07:41:21.586Z,820
2017-05-27T07:42:22.226Z,776
2017-05-27T07:43:22.294Z,756
2017-05-27T07:44:22.562Z,732
2017-05-27T07:45:22.258Z,720
2017-05-27T07:46:22.578Z,704
2017-05-27T07:47:22.583Z,692
2017-05-27T07:48:22.286Z,696
2017-05-27T07:49:22.311Z,708
2017-05-27T07:50:22.316Z,768
2017-05-27T07:51:22.624Z,784
2017-05-27T07:52:22.327Z,804
2017-05-27T07:53:22.343Z,896
2017-05-27T07:54:22.360Z,1056
2017-05-27T07:55:22.069Z,1196
2017-05-27T07:56:22.377Z,1272
2017-05-27T07:57:22.385Z,1300
2017-05-27T07:58:22.702Z,1312
2017-05-27T07:59:22.820Z,1312
2017-05-27T08:00:22.725Z,1312
2017-05-27T08:01:22.734Z,1312
2017-05-27T08:02:22.441Z,1312
2017-05-27T08:03:22.762Z,1316
2017-05-27T08:04:22.461Z,1308
2017-05-27T08:05:22.779Z,1296
2017-05-27T08:06:22.841Z,1276
2017-05-27T08:07:22.539Z,1252
2017-05-27T08:08:22.807Z,1228
2017-05-27T08:09:22.871Z,1204
2017-05-27T08:10:22.886Z,1176
2017-05-27T08:11:22.530Z,1148
2017-05-27T08:12:22.844Z,1132
2017-05-27T08:13:22.246Z,1116
2017-05-27T08:14:22.560Z,1100
2017-05-27T08:15:22.899Z,1092
2017-05-27T08:16:22.888Z,1084
2017-05-27T08:17:22.912Z,1064
2017-05-27T08:18:23.217Z,1048
2017-05-27T08:19:22.774Z,1028
2017-05-27T08:20:22.625Z,1016
2017-05-27T08:21:22.629Z,996
2017-05-27T08:22:22.700Z,976
2017-05-27T08:23:23.012Z,928
2017-05-27T08:24:23.088Z,876
2017-05-27T08:25:23.018Z,836
2017-05-27T08:26:22.737Z,792
2017-05-27T08:27:23.003Z,768
2017-05-27T08:28:22.705Z,780
2017-05-27T08:29:22.763Z,804
2017-05-27T08:30:22.720Z,864
2017-05-27T08:31:22.733Z,884
2017-05-27T08:32:22.756Z,888
2017-05-27T08:33:22.755Z,876
2017-05-27T08:34:22.504Z,876
2017-05-27T08:35:22.830Z,864
2017-05-27T08:36:22.884Z,868
2017-05-27T08:37:23.105Z,880
2017-05-27T08:38:22.493Z,916
2017-05-27T08:39:23.194Z,956
2017-05-27T08:40:22.574Z,972
2017-05-27T08:41:22.831Z,988
2017-05-27T08:42:23.255Z,1008
2017-05-27T08:43:22.541Z,1028
2017-05-27T08:44:23.189Z,1068
2017-05-27T08:45:22.882Z,1108
2017-05-27T08:46:23.195Z,1156
2017-05-27T08:47:23.211Z,1200
2017-05-27T08:48:23.229Z,1240
2017-05-27T08:49:22.914Z,1272
2017-05-27T08:50:22.970Z,1300
2017-05-27T08:51:22.672Z,1320
2017-05-27T08:52:22.999Z,1324
2017-05-27T08:53:22.700Z,1324
2017-05-27T08:54:22.981Z,1332
2017-05-27T08:55:22.977Z,1332
2017-05-27T08:56:23.297Z,1356
2017-05-27T08:57:23.306Z,1360
2017-05-27T08:58:23.316Z,1368
2017-05-27T08:59:23.326Z,1372
2017-05-27T09:00:23.345Z,1372
2017-05-27T09:01:22.735Z,1376
2017-05-27T09:02:23.457Z,1380
2017-05-27T09:03:23.056Z,1384
2017-05-27T09:04:23.377Z,1380
2017-05-27T09:05:22.868Z,1380
2017-05-27T09:06:23.401Z,1356
2017-05-27T09:07:23.406Z,1376
2017-05-27T09:08:23.475Z,1380
2017-05-27T09:09:23.436Z,1376
2017-05-27T09:10:23.127Z,1368
2017-05-27T09:11:23.450Z,1364
2017-05-27T09:12:23.456Z,1368
2017-05-27T09:13:23.519Z,1364
2017-05-27T09:14:23.477Z,1364
2017-05-27T09:15:23.542Z,1348
2017-05-27T09:16:23.189Z,1360
2017-05-27T09:17:23.508Z,1352
2017-05-27T09:18:23.519Z,1348
2017-05-27T09:19:23.582Z,1348
2017-05-27T09:20:23.539Z,1348
2017-05-27T09:21:23.548Z,1352
2017-05-27T09:22:23.245Z,1352
2017-05-27T09:23:23.566Z,1344
2017-05-27T09:24:23.265Z,1340
2017-05-27T09:25:23.329Z,1340
2017-05-27T09:26:23.337Z,1340
2017-05-27T09:27:23.609Z,1324
2017-05-27T09:28:23.635Z,1336
2017-05-27T09:29:23.684Z,1328
2017-05-27T09:30:23.688Z,1332
2017-05-27T09:31:23.384Z,1328
2017-05-27T09:32:23.341Z,1328
2017-05-27T09:33:23.669Z,1324
2017-05-27T09:34:23.362Z,1328
2017-05-27T09:35:23.375Z,1324
2017-05-27T09:36:23.388Z,1324
2017-05-27T09:37:23.396Z,1320
2017-05-27T09:38:23.457Z,1320
2017-05-27T09:39:23.744Z,1320
2017-05-27T09:40:23.432Z,1312
2017-05-27T09:41:23.125Z,1304
2017-05-27T09:42:23.441Z,1304
2017-05-27T09:43:23.768Z,1312
2017-05-27T09:44:23.523Z,1312
2017-05-27T09:45:23.835Z,1308
2017-05-27T09:46:24.144Z,1304
2017-05-27T09:47:23.850Z,1304
2017-05-27T09:48:23.817Z,1292
2017-05-27T09:49:23.568Z,1296
2017-05-27T09:50:23.528Z,1292
2017-05-27T09:51:23.847Z,1288
2017-05-27T09:52:23.959Z,1284
2017-05-27T09:53:23.912Z,1276
2017-05-27T09:54:22.990Z,1276
2017-05-27T09:55:23.264Z,1276
2017-05-27T09:56:23.271Z,1276
2017-05-27T09:57:23.361Z,1272
2017-05-27T09:58:23.616Z,1264
2017-05-27T09:59:23.924Z,1256
2017-05-27T10:00:23.320Z,1256
2017-05-27T10:01:23.011Z,1256
2017-05-27T10:02:23.078Z,1260
2017-05-27T10:03:23.345Z,1256
2017-05-27T10:04:23.044Z,1256
2017-05-27T10:05:23.107Z,1252
2017-05-27T10:06:23.434Z,1248
2017-05-27T10:07:23.075Z,1244
2017-05-27T10:08:23.079Z,1244
2017-05-27T10:09:23.408Z,1244
2017-05-27T10:10:24.039Z,1248
2017-05-27T10:11:24.096Z,1248
2017-05-27T10:12:23.439Z,1244
2017-05-27T10:13:24.121Z,1244
2017-05-27T10:14:24.080Z,1244
2017-05-27T10:15:24.094Z,1228
2017-05-27T10:16:24.096Z,1236
2017-05-27T10:17:24.158Z,1228
2017-05-27T10:18:24.168Z,1232
2017-05-27T10:19:23.519Z,1228
2017-05-27T10:20:23.880Z,1224
2017-05-27T10:21:23.853Z,1224
2017-05-27T10:22:24.213Z,1216
2017-05-27T10:23:23.911Z,1212
2017-05-27T10:24:23.871Z,1220
2017-05-27T10:25:23.883Z,1212
2017-05-27T10:26:23.939Z,1208
2017-05-27T10:27:23.899Z,1200
2017-05-27T10:28:24.223Z,1208
2017-05-27T10:29:23.918Z,1204
2017-05-27T10:30:24.300Z,1204
2017-05-27T10:31:24.249Z,1196
2017-05-27T10:32:24.005Z,1196
2017-05-27T10:33:23.973Z,1188
2017-05-27T10:34:23.705Z,1192
2017-05-27T10:35:24.291Z,1192
2017-05-27T10:36:24.300Z,1188
2017-05-27T10:37:24.361Z,1180
2017-05-27T10:38:24.324Z,1184
2017-05-27T10:39:24.329Z,1176
2017-05-27T10:40:24.340Z,1176
2017-05-27T10:41:24.363Z,1172
2017-05-27T10:42:24.052Z,1172
2017-05-27T10:43:24.425Z,1164
2017-05-27T10:44:23.867Z,1160
2017-05-27T10:45:24.441Z,1152
2017-05-27T10:46:24.088Z,1152
2017-05-27T10:47:24.099Z,1148
2017-05-27T10:48:24.110Z,1152
2017-05-27T10:49:23.854Z,1140
2017-05-27T10:50:24.441Z,1144
2017-05-27T10:51:24.447Z,1132
2017-05-27T10:52:24.509Z,1132
2017-05-27T10:53:24.472Z,1140
2017-05-27T10:54:24.269Z,1144
2017-05-27T10:55:24.233Z,1136
2017-05-27T10:56:23.932Z,1140
2017-05-27T10:57:24.516Z,1128
2017-05-27T10:58:24.211Z,1120
2017-05-27T10:59:24.318Z,1112
2017-05-27T11:00:24.283Z,1116
2017-05-27T11:01:24.236Z,1080
2017-05-27T11:02:24.250Z,1112
2017-05-27T11:03:23.953Z,1116
2017-05-27T11:04:24.581Z,1116
2017-05-27T11:05:24.329Z,1108
2017-05-27T11:06:24.286Z,1104
2017-05-27T11:07:24.309Z,1100
2017-05-27T11:08:24.668Z,1092
2017-05-27T11:09:24.315Z,1100
2017-05-27T11:10:24.635Z,1092
2017-05-27T11:11:24.338Z,1088
2017-05-27T11:12:24.347Z,1088
2017-05-27T11:13:24.041Z,1072
2017-05-27T11:14:24.368Z,1076
2017-05-27T11:15:24.376Z,1068
2017-05-27T11:16:24.437Z,1064
2017-05-27T11:17:24.400Z,1064
2017-05-27T11:18:24.405Z,1064
2017-05-27T11:19:24.111Z,1056
2017-05-27T11:20:23.803Z,1056
2017-05-27T11:21:24.435Z,1052
2017-05-27T11:22:24.446Z,1052
2017-05-27T11:23:24.144Z,1048
2017-05-27T11:24:24.156Z,1048
2017-05-27T11:25:24.539Z,1040
2017-05-27T11:26:24.233Z,1036
2017-05-27T11:27:24.504Z,1028
2017-05-27T11:28:24.559Z,1032
2017-05-27T11:29:24.514Z,1024
2017-05-27T11:30:24.526Z,1024
2017-05-27T11:31:24.540Z,1016
2017-05-27T11:32:24.546Z,1024
2017-05-27T11:33:24.556Z,1020
2017-05-27T11:34:23.945Z,1008
2017-05-27T11:35:24.938Z,1012
2017-05-27T11:36:24.900Z,1008
2017-05-27T11:37:24.288Z,1000
2017-05-27T11:38:24.919Z,1000
2017-05-27T11:39:24.308Z,996
2017-05-27T11:40:24.629Z,984
2017-05-27T11:41:24.639Z,972
2017-05-27T11:42:24.651Z,976
2017-05-27T11:43:24.966Z,968
2017-05-27T11:44:24.978Z,960
2017-05-27T11:45:24.995Z,948
2017-05-27T11:46:24.740Z,944
2017-05-27T11:47:25.057Z,932
2017-05-27T11:48:25.115Z,924
2017-05-27T11:49:24.721Z,920
2017-05-27T11:50:24.736Z,908
2017-05-27T11:51:25.049Z,908
2017-05-27T11:52:25.061Z,900
2017-05-27T11:53:25.126Z,892
2017-05-27T11:54:25.078Z,888
2017-05-27T11:55:24.781Z,884
2017-05-27T11:56:25.100Z,876
2017-05-27T11:57:24.488Z,868
2017-05-27T11:58:24.496Z,864
2017-05-27T11:59:25.124Z,852
2017-05-27T12:00:25.234Z,848
2017-05-27T12:01:25.148Z,832
2017-05-27T12:02:25.159Z,828
2017-05-27T12:03:25.481Z,820
2017-05-27T12:04:24.553Z,816
2017-05-27T12:05:25.237Z,808
2017-05-27T12:06:25.194Z,804
2017-05-27T12:07:24.909Z,804
2017-05-27T12:08:24.951Z,788
2017-05-27T12:09:24.604Z,788
2017-05-27T12:10:25.238Z,776
2017-05-27T12:11:24.983Z,772
2017-05-27T12:12:25.305Z,764
2017-05-27T12:13:24.382Z,756
2017-05-27T12:14:24.966Z,748
2017-05-27T12:15:24.978Z,740
2017-05-27T12:16:25.297Z,740
2017-05-27T12:17:25.048Z,728
2017-05-27T12:18:25.316Z,724
2017-05-27T12:19:25.331Z,712
2017-05-27T12:20:25.077Z,708
2017-05-27T12:21:25.345Z,700
2017-05-27T12:22:25.054Z,696
2017-05-27T12:23:25.107Z,692
2017-05-27T12:24:25.115Z,696
2017-05-27T12:25:25.078Z,676
2017-05-27T12:26:25.450Z,676
2017-05-27T12:27:25.470Z,668
2017-05-27T12:28:25.154Z,656
2017-05-27T12:29:25.115Z,652
2017-05-27T12:30:25.437Z,648
2017-05-27T12:31:25.458Z,640
2017-05-27T12:32:25.164Z,644
2017-05-27T12:33:24.535Z,628
2017-05-27T12:34:24.913Z,628
2017-05-27T12:35:25.552Z,620
2017-05-27T12:36:25.515Z,616
2017-05-27T12:37:25.559Z,600
2017-05-27T12:38:25.566Z,600
2017-05-27T12:39:25.241Z,592
2017-05-27T12:40:25.274Z,580
2017-05-27T12:41:25.289Z,576
2017-05-27T12:42:25.297Z,560
2017-05-27T12:43:25.570Z,548
2017-05-27T12:44:25.006Z,544
2017-05-27T12:45:25.652Z,544
2017-05-27T12:46:25.687Z,536
2017-05-27T12:47:25.293Z,524
2017-05-27T12:48:24.999Z,520
2017-05-27T12:49:25.635Z,504
2017-05-27T12:50:25.016Z,508
2017-05-27T12:51:25.654Z,496
2017-05-27T12:52:25.661Z,492
2017-05-27T12:53:25.676Z,480
2017-05-27T12:54:25.422Z,476
2017-05-27T12:55:25.380Z,476
2017-05-27T12:56:25.393Z,456
2017-05-27T12:57:25.865Z,456
2017-05-27T12:58:24.789Z,448
2017-05-27T12:59:24.860Z,448
2017-05-27T13:00:24.817Z,440
2017-05-27T13:01:25.177Z,444
2017-05-27T13:02:25.818Z,436
2017-05-27T13:03:25.782Z,432
2017-05-27T13:04:25.827Z,432
2017-05-27T13:05:25.791Z,424
2017-05-27T13:06:25.858Z,428
2017-05-27T13:07:25.237Z,420
2017-05-27T13:08:25.214Z,420
2017-05-27T13:09:25.540Z,412
2017-05-27T13:10:25.889Z,412
2017-05-27T13:11:25.854Z,408
2017-05-27T13:12:25.862Z,408
2017-05-27T13:13:25.921Z,404
2017-05-27T13:14:25.257Z,400
2017-05-27T13:15:25.592Z,388
2017-05-27T13:16:25.019Z,392
2017-05-27T13:17:25.662Z,388
2017-05-27T13:18:26.027Z,384
2017-05-27T13:19:25.623Z,376
2017-05-27T13:20:25.946Z,376
2017-05-27T13:21:25.952Z,364
2017-05-27T13:22:25.339Z,364
2017-05-27T13:23:25.666Z,368
2017-05-27T13:24:25.674Z,360
2017-05-27T13:25:25.731Z,360
2017-05-27T13:26:25.386Z,360
2017-05-27T13:27:25.390Z,356
2017-05-27T13:28:25.761Z,364
2017-05-27T13:29:26.034Z,364
2017-05-27T13:30:25.736Z,352
2017-05-27T13:31:25.796Z,368
2017-05-27T13:32:26.063Z,352
2017-05-27T13:33:26.126Z,356
2017-05-27T13:34:25.511Z,360
2017-05-27T13:35:26.093Z,352
2017-05-27T13:36:25.844Z,352
2017-05-27T13:37:26.434Z,348
2017-05-27T13:38:26.130Z,372
2017-05-27T13:39:26.193Z,368
2017-05-27T13:40:25.436Z,360
2017-05-27T13:41:25.858Z,356
2017-05-27T13:42:25.595Z,352
2017-05-27T13:43:26.202Z,344
2017-05-27T13:44:26.234Z,348